createdAt,value
2024-03-19T00:01:12.085Z,19.90
2024-03-19T00:03:48.783Z,33.70
2024-03-19T00:06:19.165Z,40.00
2024-03-19T00:08:49.565Z,35.90
2024-03-19T00:11:20.068Z,32.90
2024-03-19T00:13:50.386Z,37.80
2024-03-19T00:16:21.036Z,46.30
2024-03-19T00:18:51.512Z,42.20
2024-03-19T00:21:22.236Z,28.40
2024-03-19T00:23:53.049Z,25.70
2024-03-19T00:26:23.491Z,27.30
2024-03-19T00:28:54.156Z,28.00
2024-03-19T00:31:24.715Z,24.80
2024-03-19T00:33:55.152Z,24.00
2024-03-19T00:36:25.586Z,22.40
2024-03-19T00:38:55.994Z,26.30
2024-03-19T00:41:26.293Z,27.00
2024-03-19T00:43:56.725Z,25.50
2024-03-19T00:46:27.163Z,23.30
2024-03-19T00:48:57.576Z,21.20
2024-03-19T00:51:28.528Z,24.50
2024-03-19T00:53:58.962Z,26.10
2024-03-19T00:56:29.479Z,19.60
2024-03-19T00:58:59.823Z,22.50
2024-03-19T01:01:30.210Z,29.50
2024-03-19T01:04:00.703Z,24.40
2024-03-19T01:06:31.063Z,23.50
2024-03-19T01:09:01.567Z,31.60
2024-03-19T01:11:32.226Z,34.00
2024-03-19T01:14:02.778Z,50.30
2024-03-19T01:16:33.351Z,48.50
2024-03-19T01:19:03.774Z,52.20
2024-03-19T01:21:34.205Z,44.80
2024-03-19T01:24:05.496Z,34.90
2024-03-19T01:26:36.063Z,32.20
2024-03-19T01:29:06.377Z,34.50
2024-03-19T01:31:37.320Z,33.30
2024-03-19T01:34:07.901Z,26.00
2024-03-19T01:36:38.189Z,23.30
2024-03-19T01:39:08.587Z,21.90
2024-03-19T01:41:39.794Z,30.20
2024-03-19T01:44:15.689Z,27.10
2024-03-19T01:46:45.970Z,22.50
2024-03-19T01:49:17.162Z,30.20
2024-03-19T01:51:49.122Z,30.20
2024-03-19T01:54:20.623Z,25.90
2024-03-19T01:56:51.134Z,22.30
2024-03-19T01:59:21.791Z,18.80
2024-03-19T02:01:52.317Z,18.70
2024-03-19T02:04:22.994Z,14.70
2024-03-19T02:06:53.373Z,26.80
2024-03-19T02:09:23.705Z,16.60
2024-03-19T02:11:54.115Z,19.90
2024-03-19T02:14:24.714Z,20.30
2024-03-19T02:16:55.295Z,21.00
2024-03-19T02:19:25.714Z,17.00
2024-03-19T02:21:56.306Z,18.40
2024-03-19T02:24:26.815Z,19.30
2024-03-19T02:26:57.234Z,28.50
2024-03-19T02:29:27.641Z,31.40
2024-03-19T02:31:57.867Z,36.30
2024-03-19T02:34:28.445Z,37.20
2024-03-19T02:36:59.209Z,41.80
2024-03-19T02:39:29.819Z,59.40
2024-03-19T02:42:00.129Z,112.10
2024-03-19T02:44:30.992Z,136.80
2024-03-19T02:47:01.648Z,127.40
2024-03-19T02:52:01.519Z,225.50
2024-03-19T02:54:31.957Z,191.00
2024-03-19T02:57:02.399Z,177.20
2024-03-19T02:59:32.893Z,141.90
2024-03-19T03:02:03.246Z,161.60
2024-03-19T03:04:33.689Z,194.30
2024-03-19T03:07:04.383Z,162.90
2024-03-19T03:09:34.888Z,82.60
2024-03-19T03:12:07.498Z,67.70
2024-03-19T03:14:37.930Z,30.30
2024-03-19T03:17:08.344Z,23.50
2024-03-19T03:19:38.897Z,22.50
2024-03-19T03:22:09.344Z,21.30
2024-03-19T03:24:39.797Z,16.70
2024-03-19T03:27:10.203Z,19.60
2024-03-19T03:29:41.238Z,21.20
2024-03-19T03:32:11.964Z,15.30
2024-03-19T03:34:42.475Z,22.60
2024-03-19T03:37:15.845Z,23.00
2024-03-19T03:39:49.026Z,21.60
2024-03-19T03:42:19.935Z,17.20
2024-03-19T03:44:50.523Z,19.40
2024-03-19T03:47:21.384Z,21.30
2024-03-19T03:49:51.796Z,21.00
2024-03-19T03:52:22.388Z,21.90
2024-03-19T03:54:53.408Z,21.90
2024-03-19T03:59:52.798Z,21.10
2024-03-19T04:02:23.402Z,24.20
2024-03-19T04:04:55.369Z,21.10
2024-03-19T04:07:25.897Z,22.40
2024-03-19T04:09:56.414Z,19.80
2024-03-19T04:12:27.449Z,19.10
2024-03-19T04:17:29.252Z,19.60
2024-03-19T04:20:01.958Z,20.50
2024-03-19T04:22:32.749Z,21.30
2024-03-19T04:25:03.665Z,24.30
2024-03-19T04:27:34.186Z,25.50
2024-03-19T04:30:05.028Z,34.40
2024-03-19T04:32:35.837Z,40.40
2024-03-19T04:35:07.233Z,34.00
2024-03-19T04:37:37.575Z,31.80
2024-03-19T04:40:10.551Z,30.10
2024-03-19T04:42:41.264Z,30.80
2024-03-19T04:45:13.209Z,27.80
2024-03-19T04:47:44.079Z,30.60
2024-03-19T04:50:14.409Z,32.80
2024-03-19T04:52:44.817Z,31.70
2024-03-19T04:55:15.956Z,29.50
2024-03-19T05:00:19.428Z,33.50
2024-03-19T05:02:49.986Z,31.80
2024-03-19T05:05:20.415Z,32.90
2024-03-19T05:07:50.975Z,28.30
2024-03-19T05:10:21.525Z,33.00
2024-03-19T05:12:52.685Z,29.50
2024-03-19T05:15:23.084Z,33.30
2024-03-19T05:17:53.632Z,32.00
2024-03-19T05:20:24.178Z,26.70
2024-03-19T05:22:54.523Z,28.30
2024-03-19T05:25:24.991Z,32.10
2024-03-19T05:27:55.647Z,32.10
2024-03-19T05:30:27.170Z,34.00
2024-03-19T05:32:57.744Z,37.30
2024-03-19T05:35:28.035Z,35.80
2024-03-19T05:37:58.450Z,39.40
2024-03-19T05:40:28.880Z,35.10
2024-03-19T05:42:59.251Z,34.60
2024-03-19T05:45:29.676Z,39.20
2024-03-19T05:48:00.239Z,42.10
2024-03-19T05:50:31.126Z,44.20
2024-03-19T05:53:02.330Z,47.30
2024-03-19T05:58:01.610Z,41.70
2024-03-19T06:00:32.073Z,41.20
2024-03-19T06:03:02.454Z,37.80
2024-03-19T06:05:39.518Z,38.70
2024-03-19T06:08:31.542Z,36.30
2024-03-19T06:11:02.040Z,37.90
2024-03-19T06:13:34.776Z,33.40
2024-03-19T06:16:08.019Z,32.00
2024-03-19T06:18:39.245Z,33.70
2024-03-19T06:21:09.624Z,30.40
2024-03-19T06:23:40.538Z,33.50
2024-03-19T06:26:11.116Z,30.10
2024-03-19T06:28:41.464Z,30.00
2024-03-19T06:31:12.116Z,32.70
2024-03-19T06:33:42.812Z,29.90
2024-03-19T06:36:13.283Z,28.30
2024-03-19T06:38:43.694Z,27.70
2024-03-19T06:41:14.892Z,30.70
2024-03-19T06:46:14.002Z,31.40
2024-03-19T06:48:44.676Z,29.70
2024-03-19T06:51:15.303Z,33.50
2024-03-19T06:53:46.435Z,34.50
2024-03-19T06:58:48.696Z,29.40
2024-03-19T07:01:19.577Z,24.20
2024-03-19T07:03:56.607Z,26.50
2024-03-19T07:06:33.266Z,28.20
2024-03-19T07:09:03.730Z,27.00
2024-03-19T07:11:34.016Z,22.00
2024-03-19T07:14:05.189Z,20.40
2024-03-19T07:19:04.572Z,20.30
2024-03-19T07:21:35.424Z,18.90
2024-03-19T07:24:07.399Z,20.00
2024-03-19T07:26:37.841Z,21.40
2024-03-19T07:29:08.810Z,21.10
2024-03-19T07:31:39.429Z,21.60
2024-03-19T07:34:09.899Z,20.40
2024-03-19T07:36:41.603Z,17.10
2024-03-19T07:39:12.581Z,17.00
2024-03-19T07:41:43.392Z,17.30
2024-03-19T07:44:13.846Z,17.20
2024-03-19T07:46:45.022Z,18.40
2024-03-19T07:51:44.321Z,14.40
2024-03-19T07:54:14.993Z,16.10
2024-03-19T07:56:45.562Z,17.30
2024-03-19T07:59:16.078Z,19.60
2024-03-19T08:01:46.583Z,14.80
2024-03-19T08:04:17.283Z,17.90
2024-03-19T08:06:47.946Z,15.30
2024-03-19T08:09:19.978Z,13.90
2024-03-19T08:11:50.683Z,13.60
2024-03-19T08:14:24.693Z,14.20
2024-03-19T08:16:55.233Z,15.40
2024-03-19T08:19:25.481Z,16.30
2024-03-19T08:21:55.908Z,15.60
2024-03-19T08:24:26.716Z,14.20
2024-03-19T08:26:57.180Z,16.30
2024-03-19T08:29:28.325Z,16.00
2024-03-19T08:31:58.703Z,12.20
2024-03-19T08:34:29.298Z,16.00
2024-03-19T08:36:59.818Z,14.10
2024-03-19T08:39:30.421Z,10.70
2024-03-19T08:42:05.603Z,11.60
2024-03-19T08:44:36.764Z,10.30
2024-03-19T08:47:07.725Z,11.90
2024-03-19T08:49:38.314Z,10.90
2024-03-19T08:52:10.624Z,11.80
2024-03-19T08:54:41.125Z,9.70
2024-03-19T08:57:32.493Z,11.40
2024-03-19T09:00:02.962Z,13.50
2024-03-19T09:02:33.418Z,11.70
2024-03-19T09:05:04.043Z,11.30
2024-03-19T09:07:35.384Z,18.00
2024-03-19T09:10:08.319Z,15.50
2024-03-19T09:12:39.023Z,11.60
2024-03-19T09:15:11.717Z,11.20
2024-03-19T09:17:42.709Z,10.90
2024-03-19T09:22:43.539Z,13.40
2024-03-19T09:25:14.177Z,10.60
2024-03-19T09:27:44.577Z,9.80
2024-03-19T09:30:17.049Z,8.30
2024-03-19T09:32:47.484Z,7.00
2024-03-19T09:35:18.268Z,9.40
2024-03-19T09:37:48.676Z,9.40
2024-03-19T09:40:19.354Z,6.50
2024-03-19T09:42:51.249Z,6.90
2024-03-19T09:45:28.232Z,7.40
2024-03-19T09:47:58.932Z,8.70
2024-03-19T09:50:29.524Z,6.20
2024-03-19T09:53:00.032Z,9.20
2024-03-19T09:55:30.665Z,7.50
2024-03-19T09:58:02.203Z,7.50
2024-03-19T10:00:33.180Z,9.00
2024-03-19T10:03:03.732Z,6.50
2024-03-19T10:05:41.995Z,6.50
2024-03-19T10:08:14.490Z,6.90
2024-03-19T10:10:48.366Z,4.70
2024-03-19T10:13:18.646Z,6.60
2024-03-19T10:15:53.171Z,5.70
2024-03-19T10:18:24.481Z,5.40
2024-03-19T10:20:59.107Z,6.20
2024-03-19T10:23:31.058Z,9.10
2024-03-19T10:26:01.380Z,6.80
2024-03-19T10:28:31.885Z,8.50
2024-03-19T10:31:02.682Z,6.80
2024-03-19T10:33:34.004Z,6.10
2024-03-19T10:36:05.476Z,5.40
2024-03-19T10:38:37.299Z,6.60
2024-03-19T10:41:19.109Z,7.30
2024-03-19T10:43:51.032Z,6.70
2024-03-19T10:46:22.471Z,5.60
2024-03-19T10:49:03.463Z,6.40
2024-03-19T10:54:04.717Z,6.90
2024-03-19T10:56:36.175Z,6.80
2024-03-19T10:59:09.386Z,5.90
2024-03-19T11:01:47.622Z,6.80
2024-03-19T11:04:23.773Z,5.50
2024-03-19T11:06:57.893Z,5.30
2024-03-19T11:09:30.396Z,5.80
2024-03-19T11:12:02.690Z,10.40
2024-03-19T11:14:34.241Z,6.00
2024-03-19T11:17:17.978Z,6.20
2024-03-19T11:19:55.425Z,6.80
2024-03-19T11:22:26.165Z,7.60
2024-03-19T11:25:00.180Z,5.60
2024-03-19T11:27:36.116Z,6.50
2024-03-19T11:30:17.941Z,5.90
2024-03-19T11:32:49.835Z,6.10
2024-03-19T11:35:22.106Z,6.80
2024-03-19T11:37:53.313Z,8.30
2024-03-19T11:40:24.151Z,7.30
2024-03-19T11:42:54.746Z,6.50
2024-03-19T11:45:26.052Z,9.50
2024-03-19T11:47:58.785Z,12.40
2024-03-19T11:50:29.289Z,10.20
2024-03-19T11:53:01.173Z,9.10
2024-03-19T11:55:33.190Z,10.80
2024-03-19T11:58:03.841Z,8.20
2024-03-19T12:00:34.266Z,9.10
2024-03-19T12:03:06.876Z,10.90
2024-03-19T12:05:37.283Z,8.70
2024-03-19T12:08:15.200Z,8.50
2024-03-19T12:10:46.509Z,12.20
2024-03-19T12:13:18.052Z,8.90
2024-03-19T12:15:48.587Z,8.40
2024-03-19T12:18:19.278Z,8.50
2024-03-19T12:20:50.465Z,11.00
2024-03-19T12:23:20.715Z,9.00
2024-03-19T12:25:51.274Z,12.30
2024-03-19T12:28:21.697Z,8.70
2024-03-19T12:30:53.019Z,9.70
2024-03-19T12:33:26.257Z,8.70
2024-03-19T12:35:58.417Z,11.90
2024-03-19T12:38:30.317Z,10.70
2024-03-19T12:41:00.813Z,9.50
2024-03-19T12:43:31.355Z,9.50
2024-03-19T12:46:01.731Z,8.30
2024-03-19T12:48:32.235Z,11.20
2024-03-19T12:51:02.932Z,9.90
2024-03-19T12:53:33.256Z,8.30
2024-03-19T12:56:03.777Z,8.70
2024-03-19T12:58:34.557Z,10.30
2024-03-19T13:01:05.216Z,9.90
2024-03-19T13:03:35.630Z,10.40
2024-03-19T13:06:06.963Z,11.70
2024-03-19T13:08:39.400Z,9.30
2024-03-19T13:11:10.093Z,10.10
2024-03-19T13:13:40.670Z,10.60
2024-03-19T13:16:11.166Z,10.00
2024-03-19T13:18:42.394Z,11.40
2024-03-19T13:21:12.885Z,13.30
2024-03-19T13:23:43.543Z,10.00
2024-03-19T13:26:17.131Z,9.90
2024-03-19T13:28:47.500Z,9.70
2024-03-19T13:31:19.631Z,8.70
2024-03-19T13:33:53.199Z,9.10
2024-03-19T13:36:23.719Z,7.30
2024-03-19T13:38:56.361Z,11.70
2024-03-19T13:41:26.993Z,9.60
2024-03-19T13:43:58.797Z,11.20
2024-03-19T13:46:29.355Z,12.70
2024-03-19T13:48:59.871Z,11.60
2024-03-19T13:51:32.035Z,13.70
2024-03-19T13:54:05.801Z,11.10
2024-03-19T13:56:36.963Z,12.50
2024-03-19T13:59:08.898Z,9.90
2024-03-19T14:01:39.289Z,13.30
2024-03-19T14:04:12.721Z,9.60
2024-03-19T14:06:43.804Z,10.40
2024-03-19T14:11:43.894Z,11.60
2024-03-19T14:14:14.272Z,8.80
2024-03-19T14:16:44.578Z,10.70
2024-03-19T14:19:15.507Z,11.80
2024-03-19T14:24:14.720Z,8.80
2024-03-19T14:26:45.138Z,12.00
2024-03-19T14:29:35.753Z,10.60
2024-03-19T14:32:09.979Z,10.70
2024-03-19T14:34:40.359Z,10.40
2024-03-19T14:37:10.696Z,14.50
2024-03-19T14:40:01.841Z,8.30
2024-03-19T14:42:32.923Z,11.90
2024-03-19T14:45:03.785Z,10.50
2024-03-19T14:47:34.395Z,12.20
2024-03-19T14:50:05.998Z,12.00
2024-03-19T14:52:36.807Z,10.90
2024-03-19T14:55:11.065Z,11.40
2024-03-19T14:57:42.730Z,9.80
2024-03-19T15:00:15.179Z,10.30
2024-03-19T15:02:46.117Z,11.10
2024-03-19T15:05:16.920Z,11.00
2024-03-19T15:07:47.428Z,11.30
2024-03-19T15:10:18.130Z,14.10
2024-03-19T15:12:49.358Z,14.70
2024-03-19T15:15:20.068Z,10.90
2024-03-19T15:17:50.616Z,13.30
2024-03-19T15:20:20.932Z,13.10
2024-03-19T15:22:51.346Z,13.00
2024-03-19T15:25:23.912Z,14.10
2024-03-19T15:27:54.366Z,12.60
2024-03-19T15:30:25.102Z,12.60
2024-03-19T15:32:55.730Z,11.50
2024-03-19T15:35:26.457Z,12.90
2024-03-19T15:37:56.828Z,14.40
2024-03-19T15:40:27.495Z,13.80
2024-03-19T15:42:57.898Z,11.50
2024-03-19T15:45:30.353Z,13.90
2024-03-19T15:48:03.065Z,11.20
2024-03-19T15:50:33.457Z,12.40
2024-03-19T15:53:04.338Z,14.50
2024-03-19T15:58:04.408Z,10.70
2024-03-19T16:00:34.869Z,15.50
2024-03-19T16:03:07.368Z,12.00
2024-03-19T16:05:38.046Z,12.60
2024-03-19T16:08:15.243Z,16.30
2024-03-19T16:10:45.629Z,15.00
2024-03-19T16:13:16.113Z,20.40
2024-03-19T16:15:46.689Z,15.80
2024-03-19T16:18:17.685Z,18.00
2024-03-19T16:20:47.939Z,14.80
2024-03-19T16:23:18.436Z,19.60
2024-03-19T16:25:49.019Z,14.40
2024-03-19T16:28:20.101Z,15.40
2024-03-19T16:33:19.507Z,12.90
2024-03-19T16:35:49.856Z,15.90
2024-03-19T16:38:20.254Z,21.40
2024-03-19T16:40:50.544Z,17.30
2024-03-19T16:43:21.098Z,26.90
2024-03-19T16:45:52.951Z,39.60
2024-03-19T16:48:23.679Z,59.80
2024-03-19T16:50:54.184Z,76.40
2024-03-19T16:53:24.582Z,92.00
2024-03-19T16:55:55.300Z,88.60
2024-03-19T16:58:27.649Z,65.90
2024-03-19T17:00:58.386Z,46.90
2024-03-19T17:03:28.696Z,35.70
2024-03-19T17:06:02.459Z,36.90
2024-03-19T17:08:33.330Z,30.00
2024-03-19T17:11:04.022Z,25.80
2024-03-19T17:13:38.968Z,28.70
2024-03-19T17:16:11.407Z,26.70
2024-03-19T17:18:42.341Z,36.20
2024-03-19T17:21:12.939Z,29.90
2024-03-19T17:23:43.438Z,31.30
2024-03-19T17:26:16.072Z,33.10
2024-03-19T17:28:46.476Z,31.90
2024-03-19T17:31:16.953Z,28.90
2024-03-19T17:33:47.524Z,34.80
2024-03-19T17:36:18.367Z,31.00
2024-03-19T17:38:49.501Z,34.50
2024-03-19T17:41:20.304Z,36.70
2024-03-19T17:43:50.671Z,36.50
2024-03-19T17:46:20.992Z,34.50
2024-03-19T17:48:54.788Z,31.70
2024-03-19T17:51:25.335Z,36.90
2024-03-19T17:53:56.262Z,44.00
2024-03-19T17:56:26.892Z,53.30
2024-03-19T17:58:57.501Z,67.40
2024-03-19T18:01:27.850Z,73.70
2024-03-19T18:03:58.234Z,72.30
2024-03-19T18:06:29.494Z,62.20
2024-03-19T18:09:00.895Z,53.00
2024-03-19T18:11:31.793Z,46.70
2024-03-19T18:14:02.309Z,52.40
2024-03-19T18:16:33.483Z,60.10
2024-03-19T18:19:03.972Z,60.50
2024-03-19T18:21:37.361Z,62.70
2024-03-19T18:24:09.508Z,59.60
2024-03-19T18:26:39.920Z,61.60
2024-03-19T18:29:10.642Z,58.80
2024-03-19T18:31:44.628Z,58.60
2024-03-19T18:34:15.439Z,70.90
2024-03-19T18:36:46.304Z,65.10
2024-03-19T18:39:17.455Z,67.80
2024-03-19T18:41:48.009Z,97.10
2024-03-19T18:44:18.840Z,228.80
2024-03-19T18:46:49.633Z,282.90
2024-03-19T18:49:20.051Z,266.10
2024-03-19T18:51:50.395Z,228.70
2024-03-19T18:54:20.903Z,245.40
2024-03-19T18:56:51.366Z,240.00
2024-03-19T18:59:21.705Z,232.90
2024-03-19T19:01:51.989Z,221.00
2024-03-19T19:04:22.874Z,185.40
2024-03-19T19:06:53.721Z,186.80
2024-03-19T19:09:24.276Z,204.50
2024-03-19T19:11:54.699Z,175.70
2024-03-19T19:14:25.089Z,152.60
2024-03-19T19:16:55.430Z,137.70
2024-03-19T19:19:25.732Z,143.80
2024-03-19T19:22:01.965Z,136.60
2024-03-19T19:24:32.384Z,164.80
2024-03-19T19:27:02.832Z,135.90
2024-03-19T19:29:33.600Z,138.10
2024-03-19T19:32:04.162Z,134.90
2024-03-19T19:34:34.588Z,123.40
2024-03-19T19:37:05.354Z,153.90
2024-03-19T19:39:35.855Z,236.90
2024-03-19T19:42:07.143Z,286.60
2024-03-19T19:44:37.524Z,306.10
2024-03-19T19:47:09.653Z,343.30
2024-03-19T19:49:40.167Z,373.80
2024-03-19T19:52:11.062Z,429.90
2024-03-19T19:54:41.883Z,432.90
2024-03-19T19:57:12.681Z,371.80
2024-03-19T19:59:43.241Z,347.80
2024-03-19T20:02:17.520Z,326.30
2024-03-19T20:04:48.402Z,327.60
2024-03-19T20:07:19.054Z,334.80
2024-03-19T20:09:49.400Z,322.00
2024-03-19T20:12:19.797Z,314.80
2024-03-19T20:14:50.244Z,295.80
2024-03-19T20:17:20.724Z,290.80
2024-03-19T20:19:51.166Z,287.10
2024-03-19T20:22:21.510Z,267.30
2024-03-19T20:24:57.104Z,263.90
2024-03-19T20:27:34.477Z,247.40
2024-03-19T20:30:08.197Z,240.90
2024-03-19T20:32:38.726Z,226.90
2024-03-19T20:35:11.763Z,249.50
2024-03-19T20:37:42.356Z,247.60
2024-03-19T20:40:16.119Z,252.20
2024-03-19T20:42:47.552Z,226.90
2024-03-19T20:45:17.996Z,198.00
2024-03-19T20:47:49.292Z,195.60
2024-03-19T20:52:48.602Z,210.90
2024-03-19T20:55:19.042Z,219.20
2024-03-19T20:57:49.631Z,232.20
2024-03-19T21:00:21.771Z,238.90
2024-03-19T21:02:52.103Z,209.40
2024-03-19T21:05:22.551Z,219.10
2024-03-19T21:07:53.077Z,210.60
2024-03-19T21:10:23.617Z,206.40
2024-03-19T21:12:54.110Z,186.40
2024-03-19T21:15:25.179Z,196.60
2024-03-19T21:20:24.790Z,169.20
2024-03-19T21:22:55.185Z,172.00
2024-03-19T21:25:25.860Z,184.70
2024-03-19T21:27:56.307Z,182.50
2024-03-19T21:30:27.220Z,159.90
2024-03-19T21:32:57.716Z,159.80
2024-03-19T21:35:28.042Z,150.90
2024-03-19T21:37:58.657Z,141.80
2024-03-19T21:40:31.262Z,140.90
2024-03-19T21:43:01.697Z,140.40
2024-03-19T21:45:32.214Z,148.40
2024-03-19T21:48:03.038Z,218.90
2024-03-19T21:50:33.641Z,270.60
2024-03-19T21:53:04.306Z,299.40
2024-03-19T21:55:34.789Z,287.70
2024-03-19T21:58:05.687Z,246.30
2024-03-19T22:00:36.247Z,304.50
2024-03-19T22:03:08.483Z,296.80
2024-03-19T22:05:39.723Z,328.60
2024-03-19T22:08:14.782Z,321.40
2024-03-19T22:10:47.629Z,308.70
2024-03-19T22:13:18.461Z,333.90
2024-03-19T22:15:55.564Z,328.40
2024-03-19T22:18:25.871Z,328.10
2024-03-19T22:20:56.271Z,342.10
2024-03-19T22:23:26.702Z,324.90
2024-03-19T22:25:57.131Z,323.50
2024-03-19T22:28:27.722Z,321.80
2024-03-19T22:30:58.093Z,332.10
2024-03-19T22:33:28.928Z,340.30
2024-03-19T22:36:00.558Z,280.10
2024-03-19T22:38:31.000Z,289.70
2024-03-19T22:41:01.618Z,271.60
2024-03-19T22:43:31.906Z,244.80
2024-03-19T22:46:02.441Z,265.60
2024-03-19T22:48:32.767Z,249.90
2024-03-19T22:51:03.246Z,233.40
2024-03-19T22:53:33.514Z,234.20
2024-03-19T22:56:04.044Z,211.70
2024-03-19T22:58:34.710Z,197.90
2024-03-19T23:02:57.209Z,179.60
2024-03-19T23:05:33.833Z,180.50
2024-03-19T23:08:04.486Z,176.90
2024-03-19T23:10:34.921Z,173.80
2024-03-19T23:13:06.817Z,163.00
2024-03-19T23:15:38.533Z,165.40
2024-03-19T23:18:09.247Z,158.50
2024-03-19T23:20:39.672Z,158.60
2024-03-19T23:23:10.117Z,148.60
2024-03-19T23:25:40.618Z,165.60
2024-03-19T23:28:11.084Z,146.10
2024-03-19T23:30:41.903Z,143.70
2024-03-19T23:33:12.495Z,149.20
2024-03-19T23:35:43.264Z,128.50
2024-03-19T23:38:13.754Z,110.50
2024-03-19T23:40:44.007Z,104.10
2024-03-19T23:43:14.567Z,116.70
2024-03-19T23:45:45.398Z,109.20
2024-03-19T23:48:15.939Z,118.90
2024-03-19T23:50:46.358Z,110.90
2024-03-19T23:53:16.915Z,124.60
2024-03-19T23:55:47.834Z,121.20
2024-03-19T23:58:18.193Z,117.70
